sensor_id;sensor_type;location;lat;lon;timestamp;pressure;altitude;pressure_sealevel;temperature;humidity
60433;BME280;46286;48.098;11.590;2023-01-30T00:00:27;96051.09;;;-5.62;100.00
60433;BME280;46286;48.098;11.590;2023-01-30T00:03:13;96049.34;;;-5.62;100.00
60433;BME280;46286;48.098;11.590;2023-01-30T00:05:38;96044.66;;;-5.66;100.00
60433;BME280;46286;48.098;11.590;2023-01-30T00:08:04;96046.59;;;-5.68;100.00
60433;BME280;46286;48.098;11.590;2023-01-30T00:10:29;96038.59;;;-5.65;100.00
60433;BME280;46286;48.098;11.590;2023-01-30T00:12:55;96039.91;;;-5.61;100.00
60433;BME280;46286;48.098;11.590;2023-01-30T00:15:20;96038.44;;;-5.64;100.00
60433;BME280;46286;48.098;11.590;2023-01-30T00:17:46;96012.00;;;-5.64;100.00
60433;BME280;46286;48.098;11.590;2023-01-30T00:20:11;96017.75;;;-5.62;100.00
60433;BME280;46286;48.098;11.590;2023-01-30T00:22:37;96025.78;;;-5.65;100.00
60433;BME280;46286;48.098;11.590;2023-01-30T00:25:02;96019.69;;;-5.56;100.00
60433;BME280;46286;48.098;11.590;2023-01-30T00:27:29;96019.09;;;-5.50;100.00
60433;BME280;46286;48.098;11.590;2023-01-30T00:29:54;96018.44;;;-5.52;100.00
60433;BME280;46286;48.098;11.590;2023-01-30T00:32:20;96018.41;;;-5.68;100.00
60433;BME280;46286;48.098;11.590;2023-01-30T00:34:45;96018.03;;;-5.74;100.00
60433;BME280;46286;48.098;11.590;2023-01-30T00:37:11;96013.84;;;-5.83;100.00
60433;BME280;46286;48.098;11.590;2023-01-30T00:39:36;96004.19;;;-5.89;100.00
60433;BME280;46286;48.098;11.590;2023-01-30T00:42:02;96006.78;;;-5.97;100.00
60433;BME280;46286;48.098;11.590;2023-01-30T00:44:46;96004.16;;;-6.05;100.00
60433;BME280;46286;48.098;11.590;2023-01-30T00:47:30;95997.44;;;-6.06;100.00
60433;BME280;46286;48.098;11.590;2023-01-30T00:49:55;95990.72;;;-6.07;100.00
60433;BME280;46286;48.098;11.590;2023-01-30T00:52:21;95983.97;;;-6.08;100.00
60433;BME280;46286;48.098;11.590;2023-01-30T00:54:46;95986.22;;;-6.05;100.00
60433;BME280;46286;48.098;11.590;2023-01-30T00:57:12;95977.25;;;-6.10;100.00
60433;BME280;46286;48.098;11.590;2023-01-30T00:59:38;95969.03;;;-6.21;100.00
60433;BME280;46286;48.098;11.590;2023-01-30T01:02:03;95969.66;;;-6.28;100.00
60433;BME280;46286;48.098;11.590;2023-01-30T01:04:29;95971.44;;;-6.20;100.00
60433;BME280;46286;48.098;11.590;2023-01-30T01:06:54;95966.63;;;-6.23;100.00
60433;BME280;46286;48.098;11.590;2023-01-30T01:09:20;95968.09;;;-6.20;100.00
60433;BME280;46286;48.098;11.590;2023-01-30T01:11:45;95964.00;;;-6.31;100.00
60433;BME280;46286;48.098;11.590;2023-01-30T01:14:11;95952.47;;;-6.35;100.00
60433;BME280;46286;48.098;11.590;2023-01-30T01:16:36;95953.88;;;-6.41;100.00
60433;BME280;46286;48.098;11.590;2023-01-30T01:19:02;95942.31;;;-6.45;100.00
60433;BME280;46286;48.098;11.590;2023-01-30T01:21:28;95930.97;;;-6.42;100.00
60433;BME280;46286;48.098;11.590;2023-01-30T01:23:56;95942.53;;;-6.38;100.00
60433;BME280;46286;48.098;11.590;2023-01-30T01:26:22;95942.44;;;-6.55;100.00
60433;BME280;46286;48.098;11.590;2023-01-30T01:28:48;95940.53;;;-6.53;100.00
60433;BME280;46286;48.098;11.590;2023-01-30T01:31:15;95945.97;;;-6.56;100.00
60433;BME280;46286;48.098;11.590;2023-01-30T01:33:41;95939.22;;;-6.57;100.00
60433;BME280;46286;48.098;11.590;2023-01-30T01:36:07;95943.88;;;-6.60;100.00
60433;BME280;46286;48.098;11.590;2023-01-30T01:38:33;95945.25;;;-6.66;100.00
60433;BME280;46286;48.098;11.590;2023-01-30T01:40:59;95946.97;;;-6.75;100.00
60433;BME280;46286;48.098;11.590;2023-01-30T01:43:32;95943.56;;;-6.84;100.00
60433;BME280;46286;48.098;11.590;2023-01-30T01:48:46;95931.09;;;-6.79;100.00
60433;BME280;46286;48.098;11.590;2023-01-30T01:51:17;95934.34;;;-6.76;100.00
60433;BME280;46286;48.098;11.590;2023-01-30T01:53:50;95921.78;;;-6.88;100.00
60433;BME280;46286;48.098;11.590;2023-01-30T01:56:19;95917.53;;;-6.97;100.00
60433;BME280;46286;48.098;11.590;2023-01-30T01:58:49;95915.66;;;-6.95;100.00
60433;BME280;46286;48.098;11.590;2023-01-30T02:01:16;95918.22;;;-6.95;100.00
60433;BME280;46286;48.098;11.590;2023-01-30T02:03:45;95921.41;;;-6.93;100.00
60433;BME280;46286;48.098;11.590;2023-01-30T02:06:13;95918.22;;;-6.95;100.00
60433;BME280;46286;48.098;11.590;2023-01-30T02:08:43;95935.13;;;-7.02;100.00
60433;BME280;46286;48.098;11.590;2023-01-30T02:11:29;95931.00;;;-6.95;100.00
60433;BME280;46286;48.098;11.590;2023-01-30T02:13:56;95930.28;;;-7.05;100.00
60433;BME280;46286;48.098;11.590;2023-01-30T02:16:22;95935.69;;;-7.08;100.00
60433;BME280;46286;48.098;11.590;2023-01-30T02:18:48;95944.91;;;-7.16;100.00
60433;BME280;46286;48.098;11.590;2023-01-30T02:21:39;95948.44;;;-7.17;100.00
60433;BME280;46286;48.098;11.590;2023-01-30T02:24:13;95949.44;;;-7.09;100.00
60433;BME280;46286;48.098;11.590;2023-01-30T02:35:22;95944.25;;;-7.36;100.00
60433;BME280;46286;48.098;11.590;2023-01-30T02:38:15;95928.63;;;-7.33;100.00
60433;BME280;46286;48.098;11.590;2023-01-30T02:44:01;95935.88;;;-7.28;100.00
60433;BME280;46286;48.098;11.590;2023-01-30T02:46:52;95938.78;;;-7.23;100.00
60433;BME280;46286;48.098;11.590;2023-01-30T02:49:29;95942.31;;;-7.24;100.00
60433;BME280;46286;48.098;11.590;2023-01-30T02:51:57;95951.34;;;-7.11;100.00
60433;BME280;46286;48.098;11.590;2023-01-30T02:54:25;95955.00;;;-7.32;100.00
60433;BME280;46286;48.098;11.590;2023-01-30T02:56:53;95954.59;;;-7.45;100.00
60433;BME280;46286;48.098;11.590;2023-01-30T02:59:24;95952.28;;;-7.49;100.00
60433;BME280;46286;48.098;11.590;2023-01-30T03:04:45;95956.47;;;-7.47;100.00
60433;BME280;46286;48.098;11.590;2023-01-30T03:07:40;95965.25;;;-7.32;100.00
60433;BME280;46286;48.098;11.590;2023-01-30T03:13:16;95971.50;;;-7.44;100.00
60433;BME280;46286;48.098;11.590;2023-01-30T03:15:49;95968.13;;;-7.63;100.00
60433;BME280;46286;48.098;11.590;2023-01-30T03:18:18;95961.13;;;-7.61;100.00
60433;BME280;46286;48.098;11.590;2023-01-30T03:20:45;95966.34;;;-7.53;100.00
60433;BME280;46286;48.098;11.590;2023-01-30T03:23:10;95959.63;;;-7.54;100.00
60433;BME280;46286;48.098;11.590;2023-01-30T03:25:38;95948.44;;;-7.53;100.00
60433;BME280;46286;48.098;11.590;2023-01-30T03:28:07;95940.53;;;-7.41;100.00
60433;BME280;46286;48.098;11.590;2023-01-30T03:30:34;95930.03;;;-7.38;100.00
60433;BME280;46286;48.098;11.590;2023-01-30T03:32:59;95922.94;;;-7.26;100.00
60433;BME280;46286;48.098;11.590;2023-01-30T03:35:25;95926.75;;;-7.04;100.00
60433;BME280;46286;48.098;11.590;2023-01-30T03:37:51;95939.31;;;-6.93;100.00
60433;BME280;46286;48.098;11.590;2023-01-30T03:40:17;95934.34;;;-6.76;100.00
60433;BME280;46286;48.098;11.590;2023-01-30T03:42:42;95929.22;;;-6.76;100.00
60433;BME280;46286;48.098;11.590;2023-01-30T03:45:09;95924.13;;;-6.68;100.00
60433;BME280;46286;48.098;11.590;2023-01-30T03:47:35;95912.69;;;-6.56;100.00
60433;BME280;46286;48.098;11.590;2023-01-30T03:50:01;95921.66;;;-6.52;100.00
60433;BME280;46286;48.098;11.590;2023-01-30T03:52:26;95910.13;;;-6.56;100.00
60433;BME280;46286;48.098;11.590;2023-01-30T03:54:52;95913.00;;;-6.59;100.00
60433;BME280;46286;48.098;11.590;2023-01-30T03:57:18;95912.56;;;-6.46;100.00
60433;BME280;46286;48.098;11.590;2023-01-30T03:59:43;95902.44;;;-6.56;100.00
60433;BME280;46286;48.098;11.590;2023-01-30T04:02:09;95900.88;;;-6.49;100.00
60433;BME280;46286;48.098;11.590;2023-01-30T04:04:35;95907.47;;;-6.38;100.00
60433;BME280;46286;48.098;11.590;2023-01-30T04:07:00;95902.88;;;-6.26;100.00
60433;BME280;46286;48.098;11.590;2023-01-30T04:09:26;95888.34;;;-6.17;100.00
60433;BME280;46286;48.098;11.590;2023-01-30T04:11:52;95892.97;;;-6.21;100.00
60433;BME280;46286;48.098;11.590;2023-01-30T04:14:17;95888.81;;;-6.14;100.00
60433;BME280;46286;48.098;11.590;2023-01-30T04:16:44;95903.88;;;-6.11;100.00
60433;BME280;46286;48.098;11.590;2023-01-30T04:19:09;95923.16;;;-5.98;100.00
60433;BME280;46286;48.098;11.590;2023-01-30T04:21:35;95926.50;;;-5.89;100.00
60433;BME280;46286;48.098;11.590;2023-01-30T04:24:00;95914.56;;;-5.64;100.00
60433;BME280;46286;48.098;11.590;2023-01-30T04:26:26;95910.56;;;-5.42;100.00
60433;BME280;46286;48.098;11.590;2023-01-30T04:28:51;95916.69;;;-5.27;100.00
60433;BME280;46286;48.098;11.590;2023-01-30T04:31:17;95908.66;;;-5.15;100.00
60433;BME280;46286;48.098;11.590;2023-01-30T04:33:43;95904.97;;;-5.05;100.00
60433;BME280;46286;48.098;11.590;2023-01-30T04:36:09;95911.38;;;-5.00;100.00
60433;BME280;46286;48.098;11.590;2023-01-30T04:38:35;95908.16;;;-4.94;100.00
60433;BME280;46286;48.098;11.590;2023-01-30T04:41:01;95919.06;;;-4.84;100.00
60433;BME280;46286;48.098;11.590;2023-01-30T04:43:27;95908.75;;;-4.76;100.00
60433;BME280;46286;48.098;11.590;2023-01-30T04:45:54;95912.00;;;-4.74;100.00
60433;BME280;46286;48.098;11.590;2023-01-30T04:48:20;95904.59;;;-4.68;100.00
60433;BME280;46286;48.098;11.590;2023-01-30T04:50:48;95894.31;;;-4.68;100.00
60433;BME280;46286;48.098;11.590;2023-01-30T04:53:15;95876.34;;;-4.68;100.00
60433;BME280;46286;48.098;11.590;2023-01-30T04:55:40;95863.69;;;-4.78;100.00
60433;BME280;46286;48.098;11.590;2023-01-30T04:58:06;95859.97;;;-4.76;100.00
60433;BME280;46286;48.098;11.590;2023-01-30T05:00:31;95872.19;;;-4.78;100.00
60433;BME280;46286;48.098;11.590;2023-01-30T05:02:57;95865.78;;;-4.74;100.00
60433;BME280;46286;48.098;11.590;2023-01-30T05:05:23;95879.56;;;-4.75;100.00
60433;BME280;46286;48.098;11.590;2023-01-30T05:07:49;95874.91;;;-4.71;100.00
60433;BME280;46286;48.098;11.590;2023-01-30T05:10:15;95874.44;;;-4.75;100.00
60433;BME280;46286;48.098;11.590;2023-01-30T05:12:41;95873.97;;;-4.78;100.00
60433;BME280;46286;48.098;11.590;2023-01-30T05:15:07;95878.28;;;-4.79;100.00
60433;BME280;46286;48.098;11.590;2023-01-30T05:17:33;95869.63;;;-4.78;100.00
60433;BME280;46286;48.098;11.590;2023-01-30T05:19:59;95849.75;;;-4.84;100.00
60433;BME280;46286;48.098;11.590;2023-01-30T05:22:25;95839.31;;;-4.91;100.00
60433;BME280;46286;48.098;11.590;2023-01-30T05:24:50;95823.91;;;-4.91;100.00
60433;BME280;46286;48.098;11.590;2023-01-30T05:27:16;95830.47;;;-4.80;100.00
60433;BME280;46286;48.098;11.590;2023-01-30T05:29:42;95835.63;;;-4.88;100.00
60433;BME280;46286;48.098;11.590;2023-01-30T05:32:11;95843.94;;;-4.78;100.00
60433;BME280;46286;48.098;11.590;2023-01-30T05:34:38;95841.22;;;-4.76;100.00
60433;BME280;46286;48.098;11.590;2023-01-30T05:37:03;95834.63;;;-4.71;100.00
60433;BME280;46286;48.098;11.590;2023-01-30T05:39:29;95843.88;;;-4.61;100.00
60433;BME280;46286;48.098;11.590;2023-01-30T05:41:54;95845.84;;;-4.63;100.00
60433;BME280;46286;48.098;11.590;2023-01-30T05:44:20;95848.53;;;-4.57;100.00
60433;BME280;46286;48.098;11.590;2023-01-30T05:46:46;95845.50;;;-4.60;100.00
60433;BME280;46286;48.098;11.590;2023-01-30T05:49:11;95838.91;;;-4.55;100.00
60433;BME280;46286;48.098;11.590;2023-01-30T05:51:37;95821.75;;;-4.62;100.00
60433;BME280;46286;48.098;11.590;2023-01-30T05:54:02;95833.34;;;-4.75;100.00
60433;BME280;46286;48.098;11.590;2023-01-30T05:56:28;95834.31;;;-4.76;100.00
60433;BME280;46286;48.098;11.590;2023-01-30T05:58:58;95832.06;;;-4.79;100.00
60433;BME280;46286;48.098;11.590;2023-01-30T06:01:25;95830.34;;;-4.87;100.00
60433;BME280;46286;48.098;11.590;2023-01-30T06:03:51;95833.34;;;-4.83;100.00
60433;BME280;46286;48.098;11.590;2023-01-30T06:06:17;95825.06;;;-5.01;100.00
60433;BME280;46286;48.098;11.590;2023-01-30T06:08:43;95839.50;;;-5.09;100.00
60433;BME280;46286;48.098;11.590;2023-01-30T06:11:15;95834.06;;;-5.06;100.00
60433;BME280;46286;48.098;11.590;2023-01-30T06:13:41;95829.59;;;-5.20;100.00
60433;BME280;46286;48.098;11.590;2023-01-30T06:16:10;95823.50;;;-5.11;100.00
60433;BME280;46286;48.098;11.590;2023-01-30T06:18:36;95826.69;;;-5.09;100.00
60433;BME280;46286;48.098;11.590;2023-01-30T06:21:02;95829.91;;;-5.07;100.00
60433;BME280;46286;48.098;11.590;2023-01-30T06:23:28;95824.75;;;-5.07;100.00
60433;BME280;46286;48.098;11.590;2023-01-30T06:25:54;95830.34;;;-5.03;100.00
60433;BME280;46286;48.098;11.590;2023-01-30T06:28:21;95827.63;;;-5.01;100.00
60433;BME280;46286;48.098;11.590;2023-01-30T06:30:48;95819.63;;;-5.07;100.00
60433;BME280;46286;48.098;11.590;2023-01-30T06:33:13;95826.50;;;-4.99;100.00
60433;BME280;46286;48.098;11.590;2023-01-30T06:35:42;95827.63;;;-5.01;100.00
60433;BME280;46286;48.098;11.590;2023-01-30T06:38:08;95824.75;;;-4.98;100.00
60433;BME280;46286;48.098;11.590;2023-01-30T06:40:46;95819.91;;;-4.93;100.00
60433;BME280;46286;48.098;11.590;2023-01-30T06:43:12;95818.81;;;-4.99;100.00
60433;BME280;46286;48.098;11.590;2023-01-30T06:45:38;95823.78;;;-4.97;100.00
60433;BME280;46286;48.098;11.590;2023-01-30T06:48:10;95824.25;;;-4.94;100.00
60433;BME280;46286;48.098;11.590;2023-01-30T06:50:36;95835.31;;;-4.93;100.00
60433;BME280;46286;48.098;11.590;2023-01-30T06:53:04;95841.09;;;-4.91;100.00
60433;BME280;46286;48.098;11.590;2023-01-30T06:55:32;95839.00;;;-4.88;100.00
60433;BME280;46286;48.098;11.590;2023-01-30T06:58:01;95844.88;;;-4.71;100.00
60433;BME280;46286;48.098;11.590;2023-01-30T07:00:28;95852.25;;;-4.67;100.00
60433;BME280;46286;48.098;11.590;2023-01-30T07:02:53;95856.09;;;-4.63;100.00
60433;BME280;46286;48.098;11.590;2023-01-30T07:05:19;95864.72;;;-4.48;100.00
60433;BME280;46286;48.098;11.590;2023-01-30T07:07:45;95856.97;;;-4.40;100.00
60433;BME280;46286;48.098;11.590;2023-01-30T07:10:11;95854.09;;;-4.37;100.00
60433;BME280;46286;48.098;11.590;2023-01-30T07:12:37;95852.03;;;-4.10;100.00
60433;BME280;46286;48.098;11.590;2023-01-30T07:15:04;95849.41;;;-4.02;100.00
60433;BME280;46286;48.098;11.590;2023-01-30T07:17:31;95843.19;;;-3.84;100.00
60433;BME280;46286;48.098;11.590;2023-01-30T07:19:57;95840.41;;;-3.74;100.00
60433;BME280;46286;48.098;11.590;2023-01-30T07:22:22;95853.03;;;-3.64;100.00
60433;BME280;46286;48.098;11.590;2023-01-30T07:24:48;95855.97;;;-3.68;100.00
60433;BME280;46286;48.098;11.590;2023-01-30T07:27:13;95859.38;;;-3.52;100.00
60433;BME280;46286;48.098;11.590;2023-01-30T07:29:39;95846.94;;;-3.40;100.00
60433;BME280;46286;48.098;11.590;2023-01-30T07:32:06;95847.91;;;-3.26;100.00
60433;BME280;46286;48.098;11.590;2023-01-30T07:34:32;95850.44;;;-3.18;100.00
60433;BME280;46286;48.098;11.590;2023-01-30T07:36:58;95840.47;;;-3.21;100.00
60433;BME280;46286;48.098;11.590;2023-01-30T07:39:24;95840.31;;;-3.05;100.00
60433;BME280;46286;48.098;11.590;2023-01-30T07:41:49;95837.78;;;-2.90;100.00
60433;BME280;46286;48.098;11.590;2023-01-30T07:44:15;95840.97;;;-2.88;100.00
60433;BME280;46286;48.098;11.590;2023-01-30T07:46:40;95848.16;;;-2.83;100.00
60433;BME280;46286;48.098;11.590;2023-01-30T07:49:07;95840.00;;;-2.72;100.00
60433;BME280;46286;48.098;11.590;2023-01-30T07:51:34;95838.59;;;-2.59;100.00
60433;BME280;46286;48.098;11.590;2023-01-30T07:53:59;95827.19;;;-2.50;100.00
60433;BME280;46286;48.098;11.590;2023-01-30T07:56:26;95824.53;;;-2.42;100.00
60433;BME280;46286;48.098;11.590;2023-01-30T07:58:53;95813.84;;;-2.39;100.00
60433;BME280;46286;48.098;11.590;2023-01-30T08:01:19;95806.91;;;-2.23;100.00
60433;BME280;46286;48.098;11.590;2023-01-30T08:03:45;95809.28;;;-2.22;100.00
60433;BME280;46286;48.098;11.590;2023-01-30T08:06:14;95802.63;;;-2.16;100.00
60433;BME280;46286;48.098;11.590;2023-01-30T08:08:40;95791.94;;;-2.13;100.00
60433;BME280;46286;48.098;11.590;2023-01-30T08:11:05;95800.81;;;-2.01;100.00
60433;BME280;46286;48.098;11.590;2023-01-30T08:13:31;95783.78;;;-1.95;100.00
60433;BME280;46286;48.098;11.590;2023-01-30T08:16:04;95791.38;;;-1.87;100.00
60433;BME280;46286;48.098;11.590;2023-01-30T08:18:31;95794.16;;;-1.88;100.00
60433;BME280;46286;48.098;11.590;2023-01-30T08:21:07;95806.16;;;-1.81;100.00
60433;BME280;46286;48.098;11.590;2023-01-30T08:23:33;95797.47;;;-1.73;100.00
60433;BME280;46286;48.098;11.590;2023-01-30T08:26:00;95795.53;;;-1.71;100.00
60433;BME280;46286;48.098;11.590;2023-01-30T08:28:27;95796.00;;;-1.61;100.00
60433;BME280;46286;48.098;11.590;2023-01-30T08:30:54;95789.34;;;-1.48;100.00
60433;BME280;46286;48.098;11.590;2023-01-30T08:33:21;95784.91;;;-1.33;100.00
60433;BME280;46286;48.098;11.590;2023-01-30T08:35:46;95784.91;;;-1.33;100.00
60433;BME280;46286;48.098;11.590;2023-01-30T08:38:13;95780.22;;;-1.23;100.00
60433;BME280;46286;48.098;11.590;2023-01-30T08:40:38;95774.44;;;-1.25;100.00
60433;BME280;46286;48.098;11.590;2023-01-30T08:43:04;95769.28;;;-1.25;100.00
60433;BME280;46286;48.098;11.590;2023-01-30T08:45:30;95763.28;;;-1.32;100.00
60433;BME280;46286;48.098;11.590;2023-01-30T08:48:00;95765.03;;;-1.32;100.00
60433;BME280;46286;48.098;11.590;2023-01-30T08:50:26;95766.06;;;-1.27;100.00
60433;BME280;46286;48.098;11.590;2023-01-30T08:52:51;95774.44;;;-1.25;100.00
60433;BME280;46286;48.098;11.590;2023-01-30T08:55:17;95771.94;;;-1.11;100.00
60433;BME280;46286;48.098;11.590;2023-01-30T08:57:43;95770.06;;;-0.96;100.00
60433;BME280;46286;48.098;11.590;2023-01-30T09:00:10;95763.97;;;-0.81;100.00
60433;BME280;46286;48.098;11.590;2023-01-30T09:02:36;95756.47;;;-0.70;100.00
60433;BME280;46286;48.098;11.590;2023-01-30T09:05:03;95740.59;;;-0.60;100.00
60433;BME280;46286;48.098;11.590;2023-01-30T09:07:29;95752.16;;;-0.56;100.00
60433;BME280;46286;48.098;11.590;2023-01-30T09:09:55;95737.03;;;-0.59;100.00
60433;BME280;46286;48.098;11.590;2023-01-30T09:12:21;95747.59;;;-0.54;100.00
60433;BME280;46286;48.098;11.590;2023-01-30T09:14:46;95770.47;;;-0.50;100.00
60433;BME280;46286;48.098;11.590;2023-01-30T09:17:12;95756.16;;;-0.46;100.00
60433;BME280;46286;48.098;11.590;2023-01-30T09:19:38;95746.63;;;-0.39;100.00
60433;BME280;46286;48.098;11.590;2023-01-30T09:22:05;95736.69;;;-0.42;100.00
60433;BME280;46286;48.098;11.590;2023-01-30T09:24:32;95759.38;;;-0.44;100.00
60433;BME280;46286;48.098;11.590;2023-01-30T09:26:57;95754.78;;;-0.42;100.00
60433;BME280;46286;48.098;11.590;2023-01-30T09:29:26;95748.63;;;-0.41;100.00
60433;BME280;46286;48.098;11.590;2023-01-30T09:31:53;95746.25;;;-0.36;100.00
60433;BME280;46286;48.098;11.590;2023-01-30T09:34:22;95762.16;;;-0.39;100.00
60433;BME280;46286;48.098;11.590;2023-01-30T09:36:58;95763.38;;;-0.35;100.00
60433;BME280;46286;48.098;11.590;2023-01-30T09:39:28;95760.22;;;-0.24;100.00
60433;BME280;46286;48.098;11.590;2023-01-30T09:47:46;95732.00;;;-0.05;100.00
60433;BME280;46286;48.098;11.590;2023-01-30T09:53:21;95728.84;;;0.33;100.00
60433;BME280;46286;48.098;11.590;2023-01-30T09:55:50;95722.25;;;0.57;100.00
60433;BME280;46286;48.098;11.590;2023-01-30T09:58:21;95709.69;;;0.74;100.00
60433;BME280;46286;48.098;11.590;2023-01-30T10:00:48;95702.50;;;0.90;100.00
60433;BME280;46286;48.098;11.590;2023-01-30T10:05:44;95712.84;;;0.90;100.00
60433;BME280;46286;48.098;11.590;2023-01-30T10:11:10;95714.41;;;1.04;100.00
60433;BME280;46286;48.098;11.590;2023-01-30T10:20:04;95718.66;;;0.78;100.00
60433;BME280;46286;48.098;11.590;2023-01-30T10:25:39;95684.88;;;2.46;100.00
60433;BME280;46286;48.098;11.590;2023-01-30T10:28:27;95670.31;;;2.64;100.00
60433;BME280;46286;48.098;11.590;2023-01-30T10:31:24;95655.81;;;3.42;100.00
60433;BME280;46286;48.098;11.590;2023-01-30T10:33:56;95667.72;;;3.19;100.00
60433;BME280;46286;48.098;11.590;2023-01-30T10:36:30;95646.13;;;3.79;97.11
60433;BME280;46286;48.098;11.590;2023-01-30T10:39:00;95640.84;;;3.25;100.00
60433;BME280;46286;48.098;11.590;2023-01-30T10:41:36;95629.53;;;3.01;100.00
60433;BME280;46286;48.098;11.590;2023-01-30T10:44:12;95647.22;;;2.92;100.00
60433;BME280;46286;48.098;11.590;2023-01-30T10:49:53;95660.34;;;4.66;95.09
60433;BME280;46286;48.098;11.590;2023-01-30T11:01:01;95638.63;;;4.37;100.00
60433;BME280;46286;48.098;11.590;2023-01-30T11:03:36;95635.44;;;4.23;99.67
60433;BME280;46286;48.098;11.590;2023-01-30T11:06:14;95653.94;;;3.49;100.00
60433;BME280;46286;48.098;11.590;2023-01-30T11:08:43;95650.72;;;4.31;100.00
60433;BME280;46286;48.098;11.590;2023-01-30T11:11:25;95638.22;;;4.93;100.00
60433;BME280;46286;48.098;11.590;2023-01-30T11:14:06;95634.84;;;5.21;95.53
60433;BME280;46286;48.098;11.590;2023-01-30T11:16:40;95631.06;;;5.41;91.08
60433;BME280;46286;48.098;11.590;2023-01-30T11:19:08;95615.69;;;4.75;96.30
60433;BME280;46286;48.098;11.590;2023-01-30T11:21:35;95609.97;;;3.59;100.00
60433;BME280;46286;48.098;11.590;2023-01-30T11:24:12;95604.06;;;3.52;100.00
60433;BME280;46286;48.098;11.590;2023-01-30T11:26:38;95606.97;;;3.14;100.00
60433;BME280;46286;48.098;11.590;2023-01-30T11:31:40;95574.69;;;3.03;100.00
60433;BME280;46286;48.098;11.590;2023-01-30T11:34:16;95554.53;;;2.68;100.00
60433;BME280;46286;48.098;11.590;2023-01-30T11:36:42;95546.63;;;3.89;100.00
60433;BME280;46286;48.098;11.590;2023-01-30T11:41:43;95570.75;;;4.32;100.00
60433;BME280;46286;48.098;11.590;2023-01-30T11:44:35;95574.44;;;4.72;98.67
60433;BME280;46286;48.098;11.590;2023-01-30T11:47:05;95581.38;;;5.07;98.97
60433;BME280;46286;48.098;11.590;2023-01-30T11:49:36;95560.66;;;3.76;100.00
60433;BME280;46286;48.098;11.590;2023-01-30T11:52:04;95552.78;;;4.07;100.00
60433;BME280;46286;48.098;11.590;2023-01-30T11:54:38;95534.53;;;4.07;100.00
60433;BME280;46286;48.098;11.590;2023-01-30T11:57:11;95541.53;;;4.30;100.00
60433;BME280;46286;48.098;11.590;2023-01-30T11:59:58;95531.00;;;4.13;100.00
60433;BME280;46286;48.098;11.590;2023-01-30T12:02:29;95532.28;;;3.33;100.00
60433;BME280;46286;48.098;11.590;2023-01-30T12:05:02;95531.22;;;3.22;100.00
60433;BME280;46286;48.098;11.590;2023-01-30T12:07:31;95545.97;;;2.98;100.00
60433;BME280;46286;48.098;11.590;2023-01-30T12:09:58;95538.28;;;2.72;100.00
60433;BME280;46286;48.098;11.590;2023-01-30T12:12:31;95537.06;;;2.75;100.00
60433;BME280;46286;48.098;11.590;2023-01-30T12:18:00;95529.88;;;2.40;100.00
60433;BME280;46286;48.098;11.590;2023-01-30T12:20:45;95528.13;;;2.34;100.00
60433;BME280;46286;48.098;11.590;2023-01-30T12:25:58;95516.16;;;2.14;100.00
60433;BME280;46286;48.098;11.590;2023-01-30T12:28:38;95516.16;;;2.14;100.00
60433;BME280;46286;48.098;11.590;2023-01-30T12:31:13;95518.03;;;2.07;100.00
60433;BME280;46286;48.098;11.590;2023-01-30T12:33:42;95507.94;;;1.99;100.00
60433;BME280;46286;48.098;11.590;2023-01-30T12:36:14;95487.59;;;1.96;100.00
60433;BME280;46286;48.098;11.590;2023-01-30T12:39:04;95499.41;;;1.92;100.00
60433;BME280;46286;48.098;11.590;2023-01-30T12:41:55;95491.19;;;1.95;100.00
60433;BME280;46286;48.098;11.590;2023-01-30T12:55:22;95477.34;;;1.82;100.00
60433;BME280;46286;48.098;11.590;2023-01-30T12:58:09;95480.53;;;1.84;100.00
60433;BME280;46286;48.098;11.590;2023-01-30T13:03:54;95472.88;;;1.89;100.00
60433;BME280;46286;48.098;11.590;2023-01-30T13:22:52;95491.47;;;2.05;100.00
60433;BME280;46286;48.098;11.590;2023-01-30T13:25:42;95503.03;;;2.09;100.00
60433;BME280;46286;48.098;11.590;2023-01-30T13:28:44;95508.22;;;2.09;100.00
60433;BME280;46286;48.098;11.590;2023-01-30T13:31:14;95514.56;;;2.13;100.00
60433;BME280;46286;48.098;11.590;2023-01-30T13:33:42;95512.53;;;2.15;100.00
60433;BME280;46286;48.098;11.590;2023-01-30T13:36:14;95514.13;;;2.16;100.00
60433;BME280;46286;48.098;11.590;2023-01-30T13:41:36;95517.31;;;2.37;100.00
60433;BME280;46286;48.098;11.590;2023-01-30T13:44:33;95520.94;;;2.36;100.00
60433;BME280;46286;48.098;11.590;2023-01-30T13:52:32;95526.84;;;2.43;100.00
60433;BME280;46286;48.098;11.590;2023-01-30T13:55:26;95532.88;;;2.37;100.00
60433;BME280;46286;48.098;11.590;2023-01-30T13:58:36;95526.25;;;2.41;100.00
60433;BME280;46286;48.098;11.590;2023-01-30T14:01:09;95529.88;;;2.40;100.00
60433;BME280;46286;48.098;11.590;2023-01-30T14:03:36;95533.03;;;2.42;100.00
60433;BME280;46286;48.098;11.590;2023-01-30T14:08:39;95533.47;;;2.39;100.00
60433;BME280;46286;48.098;11.590;2023-01-30T14:11:24;95532.31;;;2.35;100.00
60433;BME280;46286;48.098;11.590;2023-01-30T14:13:59;95531.00;;;2.44;100.00
60433;BME280;46286;48.098;11.590;2023-01-30T14:16:39;95550.22;;;2.43;100.00
60433;BME280;46286;48.098;11.590;2023-01-30T14:19:29;95539.84;;;2.43;100.00
60433;BME280;46286;48.098;11.590;2023-01-30T14:21:58;95550.56;;;2.47;100.00
60433;BME280;46286;48.098;11.590;2023-01-30T14:24:26;95563.78;;;2.45;100.00
60433;BME280;46286;48.098;11.590;2023-01-30T14:27:00;95556.03;;;2.38;100.00
60433;BME280;46286;48.098;11.590;2023-01-30T14:39:53;95595.31;;;2.05;100.00
60433;BME280;46286;48.098;11.590;2023-01-30T14:42:26;95607.31;;;2.06;100.00
60433;BME280;46286;48.098;11.590;2023-01-30T14:45:18;95607.31;;;2.06;100.00
60433;BME280;46286;48.098;11.590;2023-01-30T14:47:43;95597.03;;;1.93;100.00
60433;BME280;46286;48.098;11.590;2023-01-30T14:50:27;95601.50;;;1.85;100.00
60433;BME280;46286;48.098;11.590;2023-01-30T14:52:54;95616.66;;;1.82;100.00